Abdullah Unai

Recruteur - Galatasaray
20 Nov 2027
Samedi
Processus

Personnalité

Adaptabilité (14) Ambition (19) Controverse (3) Loyauté (18) Pression (13) Professionnalisme (3) Sportivité (16) Tempérament (8)

Profil

Style d'entraînement Démocratique
Diplôme National B
Détermination 12
Gestion des joueurs 13
Motivation 11
Discipline 9
Satisfaction professionnelle
100%
Fatigue
0%
Rôle Recruteur
Salaire 44.8K p/s
Contrat 14.03.2030

Performance

Comportement Bon
Efficacité de l'entraînement
66%
Développement des joueurs
70%
Prévention des blessures
60%
Mise en place tactique
50%

Événements récents

A participé à une réunion de recrutement maintenant
A recommandé une cible de transfert maintenant
A recommandé une cible de transfert maintenant
A recommandé une cible de transfert maintenant
A recommandé une cible de transfert 7j
A recommandé une cible de transfert 7j
A recommandé une cible de transfert 7j
A recommandé une cible de transfert 7j

Suivi en cours

139
Joueur Club Statut Capacité Confiance Observé Dernière observation Dernier vote
Barış Alper Yılmaz Porto Actif 147 / 149 40% 1 27.07.2027 -
John McGinn Aston Villa Actif 156 / 150 40% 1 27.07.2027 -
Jarrod Bowen West Ham United Actif 154 / 156 40% 1 27.07.2027 -
Cenk Tosun Kasimpasa Actif 110 / 113 76% 1 12.07.2027 Approuver
Wagner Pina Trabzonspor Actif 126 / 133 76% 1 05.07.2027 Approuver
Ollie Watkins Al-Hilal Actif 162 / 153 40% 7 28.06.2027 -
Nico Paz Nacional Actif 155 / 166 40% 1 28.06.2027 -
James Garner Everton Actif 151 / 151 40% 11 24.06.2027 -
Khéphren Thuram Juventus Actif 162 / 159 40% 6 24.06.2027 -
Carlos Augusto Inter Actif 153 / 152 40% 1 24.06.2027 -
Adam Wharton Crystal Palace Actif 151 / 153 40% 15 22.06.2027 -
Ryan Sessegnon Fulham Actif 144 / 149 40% 4 22.06.2027 -
Jean-Philippe Mateta Crystal Palace Actif 152 / 153 40% 1 14.06.2027 -
Serge Gnabry Bayern Munich Perdu 164 / 157 40% 1 14.06.2027 -
Abbosbek Fayzullayev Basaksehir Actif 131 / 127 76% 1 03.06.2027 Approuver
Ernest Muçi Trabzonspor Perdu 138 / 135 76% 1 02.06.2027 -
Mike Maignan AC Milan Actif 164 / 163 40% 1 01.06.2027 -
Anatolii Trubin Tottenham Actif 158 / 158 40% 1 01.06.2027 -
Curtis Jones Inter Actif 156 / 155 40% 3 30.05.2027 -
Ethan Ampadu Leeds United Actif 148 / 147 40% 3 30.05.2027 -
Evan N'Dicka AS Roma Actif 160 / 153 40% 3 30.05.2027 -
Nobel Mendy Hull City Actif 136 / 136 40% 2 30.05.2027 -
Shea Charles Southampton Actif 132 / 135 40% 1 30.05.2027 -
Kenny Tete Fulham Actif 140 / 140 40% 7 29.05.2027 -
Yehor Yarmoliuk Brentford Actif 152 / 152 40% 8 26.05.2027 -
Alex Scott Bournemouth Actif 152 / 154 40% 11 25.05.2027 -
Nordi Mukiele Sunderland Actif 150 / 144 40% 3 25.05.2027 -
Amadou Onana Newcastle United Actif 154 / 158 40% 13 23.05.2027 -
Nathan Collins Brentford Actif 146 / 146 40% 7 23.05.2027 -
Nico O'Reilly Manchester City Actif 149 / 154 40% 2 23.05.2027 -
Mats Wieffer Brighton Actif 148 / 149 40% 10 22.05.2027 -
Quinten Timber Crystal Palace Actif 153 / 151 40% 13 22.05.2027 -
Tyrell Malacia Derby County Actif 140 / 133 40% 2 22.05.2027 -
Nico González Newcastle United Actif 166 / 158 40% 11 19.05.2027 -
Adrien Truffert Bournemouth Actif 149 / 153 40% 9 17.05.2027 -
Matty Cash Aston Villa Actif 154 / 152 40% 3 17.05.2027 -
Jarrad Branthwaite Everton Actif 150 / 152 40% 5 16.05.2027 -
Rico Lewis Manchester City Actif 148 / 152 40% 1 16.05.2027 -
Juanlu Bournemouth Actif 151 / 148 40% 5 15.05.2027 -
Roger François Udinese Actif 148 / 146 40% 3 15.05.2027 -
Callum Doyle Wrexham Actif 130 / 134 40% 2 15.05.2027 -
Tim Iroegbunam Hull City Actif 137 / 138 40% 2 15.05.2027 -
Maxence Lacroix Chelsea Actif 155 / 148 40% 6 13.05.2027 -
Anton Stach Leeds United Actif 150 / 148 40% 8 12.05.2027 -
Xaver Schlager Nottingham Forest Actif 156 / 151 40% 7 11.05.2027 -
Manu Koné AS Roma Actif 165 / 163 40% 3 11.05.2027 -
Tyler Adams Bournemouth Actif 150 / 152 40% 8 08.05.2027 -
André Wolverhampton Actif 147 / 147 40% 9 07.05.2027 -
Yasin Ayari Brighton Actif 141 / 148 40% 3 05.05.2027 -
Lewis Hall Newcastle United Actif 148 / 149 40% 3 02.05.2027 -
Alfie Gilchrist West Bromwich Albion Actif 122 / 128 40% 1 02.05.2027 -
Jorrel Hato Chelsea Actif 150 / 149 40% 5 01.05.2027 -
Manuel Locatelli Juventus Actif 150 / 150 40% 1 29.04.2027 -
Murillo Nottingham Forest Actif 154 / 154 40% 1 28.04.2027 -
Igor Burnley Actif 145 / 140 40% 4 23.04.2027 -
Orkun Kökçü Bournemouth Actif 152 / 145 40% 9 21.04.2027 -
Oumar Solet Udinese Actif 144 / 149 40% 1 20.04.2027 -
Leon Goretzka Aston Villa Actif 157 / 155 40% 6 18.04.2027 -
Calvin Bassey Fulham Actif 152 / 147 40% 3 15.04.2027 -
Edoardo Bove Watford Actif 127 / 134 40% 1 13.04.2027 -
Benjamin White Arsenal Actif 155 / 155 40% 2 11.04.2027 -
Ferdi Kadıoğlu Brighton Actif 149 / 151 40% 10 09.04.2027 -
Olivier Boscagli Brighton Actif 149 / 142 40% 2 08.04.2027 -
Saša Lukić Ipswich Town Actif 144 / 143 40% 3 04.04.2027 -
Ian Maatsen Aston Villa Actif 148 / 151 40% 3 22.03.2027 -
Daniel Muñoz Nottingham Forest Actif 144 / 151 40% 1 22.03.2027 -
Ainsley Maitland-Niles Everton Actif 144 / 135 40% 1 20.03.2027 -
Michael Kayode Brentford Actif 148 / 149 40% 1 19.03.2027 -
Pedro Porro Tottenham Actif 143 / 145 40% 5 14.03.2027 -
Ramón Terrats Getafe Actif 140 / 141 40% 3 14.03.2027 -
Florentino Luís Ipswich Town Actif 144 / 145 40% 1 11.03.2027 -
Bosun Lawal Stoke City Actif 129 / 125 40% 1 07.03.2027 -
Óscar Mingueza Crystal Palace Actif 148 / 147 40% 7 01.03.2027 -
Aaron Hickey Brentford Actif 144 / 149 40% 1 27.02.2027 -
António Silva Bournemouth Actif 142 / 146 40% 2 23.02.2027 -
Sven Botman Newcastle United Actif 157 / 162 40% 5 18.02.2027 -
Willian Pacho Juventus Actif 162 / 167 40% 1 18.02.2027 -
Noussair Mazraoui Manchester United Actif 151 / 148 40% 1 15.02.2027 -
Jan Paul van Hecke Tottenham Actif 153 / 152 40% 4 13.02.2027 -
Dodo Fiorentina Actif 153 / 147 40% 1 10.02.2027 -
Alessandro Bastoni Inter Actif 165 / 165 40% 1 28.01.2027 -
Emile Smith Rowe Fulham Actif 155 / 147 40% 2 31.12.2026 -
James Maddison Tottenham Actif 155 / 160 40% 3 31.12.2026 -
Bruno Guimarães Arsenal Actif 168 / 169 40% 3 28.12.2026 -
Carlos Vicente Udinese Actif 141 / 135 40% 3 28.12.2026 -
Thiago Almada Fiorentina Actif 154 / 143 40% 4 28.12.2026 -
Julio Enciso Ipswich Town Actif 144 / 144 40% 3 24.12.2026 -
Randal Kolo Muani Juventus Actif 147 / 141 40% 3 24.12.2026 -
Dango Ouattara Brentford Actif 151 / 149 40% 2 24.12.2026 -
Diogo Dalot Manchester United Actif 142 / 145 40% 2 24.12.2026 -
Liam Delap Nottingham Forest Actif 139 / 147 40% 2 22.12.2026 -
Luiz Henrique VfB Stuttgart Actif 140 / 141 40% 3 22.12.2026 -
Gonzalo Fulham Actif 141 / 148 40% 1 22.12.2026 -
Kiernan Dewsbury-Hall Everton Actif 149 / 143 40% 1 21.12.2026 -
Raoul Bellanova Atalanta Actif 153 / 144 40% 1 18.12.2026 -
Federico Chiesa Tottenham Actif 155 / 160 40% 1 16.12.2026 -
Ryan Gravenberch Liverpool Actif 163 / 162 40% 3 15.12.2026 -
Tino Livramento Newcastle United Actif 149 / 152 40% 1 15.12.2026 -
Alexis Mac Allister Liverpool Actif 161 / 158 40% 4 11.12.2026 -
Mason Mount Manchester United Actif 157 / 157 40% 3 08.12.2026 -
Kevin Schade Brentford Actif 145 / 144 40% 4 07.12.2026 -
Savinho Tottenham Actif 156 / 160 40% 3 07.12.2026 -
Jacob Ramsey Newcastle United Actif 146 / 146 40% 2 03.12.2026 -
Ángel Correa River Plate Perdu 147 / 143 40% 1 03.12.2026 -
Wesley Fofana Chelsea Actif 164 / 158 40% 2 01.12.2026 -
Yankuba Minteh Brighton Actif 143 / 155 40% 1 27.11.2026 -
Ismaïla Sarr Crystal Palace Actif 148 / 153 40% 2 20.11.2026 -
Rodolfo Arteaga Liverpool Actif 162 / 164 40% 1 15.11.2026 -
Georginio Rutter Manchester City Actif 152 / 147 40% 1 06.11.2026 -
Brais Méndez Columbus Crew Perdu 141 / 141 40% 3 04.11.2026 -
Oleksandr Zinchenko Lech Actif 154 / 144 40% 7 03.11.2026 -
Nino Zenit Actif 143 / 140 40% 2 02.11.2026 -
Omar Al Shamsi CSKA Moscow Actif 140 / 139 40% 1 02.11.2026 -
Ehsan Beiranvand Padideh Actif 148 / 133 40% 3 31.10.2026 -
Wendel Zenit Actif 146 / 136 40% 6 31.10.2026 -
Rúben Neves Al-Hilal Actif 160 / 145 40% 8 30.10.2026 -
Sergej Milinković-Savić Al-Hilal Actif 161 / 154 40% 8 30.10.2026 -
Tijjani Reijnders Al-Qadisiyah Actif 148 / 164 40% 5 30.10.2026 -
Marc Pubill Atlético Madrid Actif 140 / 150 40% 2 30.10.2026 -
Ritsu Doan Gamba Osaka Actif 141 / 139 40% 5 28.10.2026 -
Rasmus Kristensen FC Midtjylland Actif 145 / 141 40% 4 24.10.2026 -
Théo Hernández Al-Hilal Actif 154 / 151 40% 3 23.10.2026 -
Oscar Al-Taawoun Actif 154 / 151 40% 1 23.10.2026 -
Azzedine Ounahi Panathinaikos Actif 143 / 134 40% 3 22.10.2026 -
Galeno Al-Ahli Actif 152 / 147 40% 2 21.10.2026 -
Petar Sučić Inter Actif 148 / 145 40% 3 21.10.2026 -
Otávio Al-Qadisiyah Actif 149 / 145 40% 2 14.10.2026 -
Yves Bissouma Tottenham Actif 139 / 147 40% 3 05.10.2026 -
Adrian Dragusin CFR Cluj Actif 147 / 142 40% 1 30.09.2026 -
Juan David Cabal Juventus Actif 146 / 139 40% 3 28.09.2026 -
Joe Rodon Leeds United Actif 144 / 135 40% 1 28.09.2026 -
Malcom Al Jazira Actif 137 / 153 40% 2 20.09.2026 -
Fabinho Trabzonspor Actif 133 / 140 40% 1 19.09.2026 -
Steven Bergwijn Al-Ittihad Actif 139 / 140 40% 2 15.09.2026 -
Jerome Opoku Basaksehir Actif 122 / 130 69% 1 24.08.2026 Approuver
Alasana Yirajang Slovan Bratislava Actif 110 / 120 40% 1 19.08.2026 -
Enis Bardhi Konyaspor Perdu 134 / 132 69% 1 17.08.2026 -
Paul Onuachu Actif 124 / 134 69% 1 03.08.2026 Approuver
Álex Remiro Real Sociedad Actif 148 / 146 40% 1 01.08.2026 -